createdAt,value
2023-01-09T00:01:59.834Z,94687.56
2023-01-09T00:04:26.567Z,94680.91
2023-01-09T00:06:56.270Z,94676.84
2023-01-09T00:09:26.008Z,94684.63
2023-01-09T00:11:55.043Z,94681.63
2023-01-09T00:14:23.087Z,94670.91
2023-01-09T00:16:50.273Z,94667.59
2023-01-09T00:19:16.915Z,94664.25
2023-01-09T00:21:43.562Z,94672.75
2023-01-09T00:24:10.201Z,94663.13
2023-01-09T00:26:36.812Z,94666.81
2023-01-09T00:29:05.584Z,94654.53
2023-01-09T00:31:32.246Z,94644.56
2023-01-09T00:34:06.529Z,94635.38
2023-01-09T00:36:33.567Z,94652.69
2023-01-09T00:39:00.196Z,94664.88
2023-01-09T00:41:40.822Z,94689.25
2023-01-09T00:44:23.180Z,94714.78
2023-01-09T00:46:55.354Z,94748.34
2023-01-09T00:49:22.663Z,94754.53
2023-01-09T00:51:49.685Z,94773.75
2023-01-09T00:54:19.116Z,94784.28
2023-01-09T00:56:46.026Z,94797.75
2023-01-09T00:59:12.719Z,94796.22
2023-01-09T01:01:39.513Z,94796.16
2023-01-09T01:04:26.277Z,94804.44
2023-01-09T01:07:11.503Z,94815.22
2023-01-09T01:09:38.197Z,94818.03
2023-01-09T01:12:07.401Z,94817.78
2023-01-09T01:14:38.144Z,94815.44
2023-01-09T01:17:06.285Z,94822.41
2023-01-09T01:19:36.210Z,94834.69
2023-01-09T01:22:03.803Z,94813.84
2023-01-09T01:24:30.635Z,94811.31
2023-01-09T01:26:57.301Z,94821.75
2023-01-09T01:29:23.945Z,94813.78
2023-01-09T01:31:51.778Z,94825.19
2023-01-09T01:34:18.413Z,94807.22
2023-01-09T01:36:45.160Z,94813.84
2023-01-09T01:39:11.957Z,94810.84
2023-01-09T01:41:38.879Z,94813.34
2023-01-09T01:44:26.863Z,94805.88
2023-01-09T01:46:55.262Z,94803.34
2023-01-09T01:49:22.209Z,94803.56
2023-01-09T01:51:52.222Z,94794.72
2023-01-09T01:54:24.757Z,94807.91
2023-01-09T01:56:57.046Z,94805.13
2023-01-09T01:59:28.473Z,94814.56
2023-01-09T02:01:59.929Z,94808.72
2023-01-09T02:04:27.377Z,94813.06
2023-01-09T02:06:56.011Z,94806.75
2023-01-09T02:09:25.258Z,94810.81
2023-01-09T02:11:57.078Z,94817.00
2023-01-09T02:14:29.086Z,94807.69
2023-01-09T02:17:27.094Z,94803.84
2023-01-09T02:20:05.510Z,94797.91
2023-01-09T02:22:53.986Z,94808.78
2023-01-09T02:25:51.444Z,94803.75
2023-01-09T02:28:18.140Z,94810.28
2023-01-09T02:31:01.483Z,94799.91
2023-01-09T02:33:52.912Z,94796.13
2023-01-09T02:36:22.360Z,94796.03
2023-01-09T02:39:31.316Z,94785.16
2023-01-09T02:42:05.812Z,94788.91
2023-01-09T02:44:36.144Z,94787.13
2023-01-09T02:47:17.830Z,94793.16
2023-01-09T02:49:51.970Z,94803.63
2023-01-09T02:52:47.898Z,94798.94
2023-01-09T02:55:39.277Z,94805.19
2023-01-09T02:58:20.035Z,94807.50
2023-01-09T03:00:49.878Z,94813.44
2023-01-09T03:03:34.409Z,94811.84
2023-01-09T03:06:11.131Z,94817.38
2023-01-09T03:08:44.513Z,94827.19
2023-01-09T03:11:12.116Z,94823.19
2023-01-09T03:13:54.882Z,94824.47
2023-01-09T03:16:31.672Z,94836.22
2023-01-09T03:19:00.638Z,94847.34
2023-01-09T03:21:28.601Z,94847.41
2023-01-09T03:23:58.392Z,94847.34
2023-01-09T03:26:26.016Z,94859.72
2023-01-09T03:28:52.953Z,94860.06
2023-01-09T03:31:19.638Z,94868.59
2023-01-09T03:33:46.326Z,94885.94
2023-01-09T03:36:14.306Z,94887.13
2023-01-09T03:38:41.086Z,94906.97
2023-01-09T03:41:08.148Z,94907.38
2023-01-09T03:43:35.744Z,94916.22
2023-01-09T03:46:03.449Z,94930.06
2023-01-09T03:48:30.183Z,94933.84
2023-01-09T03:50:57.384Z,94933.97
2023-01-09T03:53:27.052Z,94936.94
2023-01-09T03:55:56.345Z,94952.63
2023-01-09T03:58:24.042Z,94942.19
2023-01-09T04:00:51.378Z,94946.38
2023-01-09T04:03:20.254Z,94946.69
2023-01-09T04:05:49.989Z,94958.09
2023-01-09T04:08:18.013Z,94959.19
2023-01-09T04:10:51.306Z,94970.53
2023-01-09T04:13:18.757Z,94958.31
2023-01-09T04:15:45.458Z,94972.69
2023-01-09T04:18:12.289Z,94974.53
2023-01-09T04:20:39.227Z,94983.19
2023-01-09T04:23:06.085Z,94976.78
2023-01-09T04:25:32.874Z,94986.28
2023-01-09T04:27:59.606Z,94984.47
2023-01-09T04:30:26.411Z,94990.50
2023-01-09T04:32:53.154Z,94985.44
2023-01-09T04:35:20.148Z,94988.94
2023-01-09T04:37:46.843Z,94986.72
2023-01-09T04:40:14.225Z,95005.63
2023-01-09T04:42:41.604Z,95005.84
2023-01-09T04:45:10.675Z,95001.69
2023-01-09T04:47:37.814Z,95004.00
2023-01-09T04:50:04.870Z,95023.72
2023-01-09T04:52:31.586Z,95027.47
2023-01-09T04:54:58.340Z,95031.06
2023-01-09T04:57:25.112Z,95039.16
2023-01-09T04:59:52.324Z,95043.22
2023-01-09T05:02:20.110Z,95046.09
2023-01-09T05:04:46.714Z,95044.75
2023-01-09T05:07:13.541Z,95052.66
2023-01-09T05:09:40.345Z,95052.91
2023-01-09T05:12:07.172Z,95045.91
2023-01-09T05:14:34.025Z,95055.47
2023-01-09T05:17:00.640Z,95074.03
2023-01-09T05:19:27.326Z,95081.50
2023-01-09T05:21:54.073Z,95080.75
2023-01-09T05:24:20.801Z,95082.44
2023-01-09T05:26:47.400Z,95084.03
2023-01-09T05:29:14.213Z,95084.81
2023-01-09T05:31:40.950Z,95094.41
2023-01-09T05:34:07.596Z,95104.75
2023-01-09T05:36:34.269Z,95117.84
2023-01-09T05:39:02.743Z,95125.22
2023-01-09T05:41:29.613Z,95122.34
2023-01-09T05:43:56.577Z,95126.81
2023-01-09T05:46:23.345Z,95134.16
2023-01-09T05:48:50.004Z,95131.56
2023-01-09T05:51:17.076Z,95130.38
2023-01-09T05:53:43.733Z,95131.97
2023-01-09T05:56:11.777Z,95146.94
2023-01-09T05:58:38.766Z,95156.75
2023-01-09T06:01:05.701Z,95161.75
2023-01-09T06:03:32.522Z,95172.13
2023-01-09T06:05:59.216Z,95180.22
2023-01-09T06:08:25.834Z,95194.09
2023-01-09T06:10:52.424Z,95209.25
2023-01-09T06:13:19.058Z,95229.28
2023-01-09T06:15:47.971Z,95236.59
2023-01-09T06:18:14.967Z,95248.19
2023-01-09T06:20:41.703Z,95260.53
2023-01-09T06:23:08.336Z,95247.78
2023-01-09T06:25:35.172Z,95255.38
2023-01-09T06:28:02.014Z,95246.38
2023-01-09T06:30:28.662Z,95254.44
2023-01-09T06:32:55.447Z,95250.91
2023-01-09T06:35:22.510Z,95259.78
2023-01-09T06:37:50.081Z,95268.25
2023-01-09T06:40:17.904Z,95270.78
2023-01-09T06:42:45.537Z,95242.97
2023-01-09T06:45:13.351Z,95250.03
2023-01-09T06:47:40.875Z,95267.22
2023-01-09T06:50:09.542Z,95252.72
2023-01-09T06:52:39.761Z,95257.13
2023-01-09T06:55:07.579Z,95261.72
2023-01-09T06:57:34.799Z,95261.31
2023-01-09T07:00:01.522Z,95263.53
2023-01-09T07:02:28.490Z,95268.94
2023-01-09T07:04:55.128Z,95270.63
2023-01-09T07:07:22.651Z,95265.81
2023-01-09T07:09:49.876Z,95275.00
2023-01-09T07:12:16.668Z,95285.66
2023-01-09T07:14:43.334Z,95272.75
2023-01-09T07:17:13.230Z,95271.91
2023-01-09T07:19:40.009Z,95274.25
2023-01-09T07:22:06.682Z,95283.06
2023-01-09T07:24:33.375Z,95282.75
2023-01-09T07:27:00.126Z,95275.53
2023-01-09T07:29:26.857Z,95289.31
2023-01-09T07:31:53.741Z,95283.38
2023-01-09T07:34:20.525Z,95285.22
2023-01-09T07:36:48.806Z,95290.44
2023-01-09T07:39:15.577Z,95287.78
2023-01-09T07:41:42.329Z,95292.06
2023-01-09T07:44:11.172Z,95307.22
2023-01-09T07:46:38.104Z,95308.72
2023-01-09T07:49:04.785Z,95315.06
2023-01-09T07:51:31.621Z,95321.28
2023-01-09T07:53:58.247Z,95330.53
2023-01-09T07:56:24.953Z,95329.34
2023-01-09T07:58:51.801Z,95335.69
2023-01-09T08:01:18.633Z,95346.88
2023-01-09T08:03:45.551Z,95348.69
2023-01-09T08:06:12.276Z,95347.41
2023-01-09T08:08:38.906Z,95355.69
2023-01-09T08:11:05.737Z,95343.09
2023-01-09T08:13:32.526Z,95350.84
2023-01-09T08:15:59.361Z,95353.41
2023-01-09T08:18:26.083Z,95338.03
2023-01-09T08:20:52.829Z,95328.38
2023-01-09T08:23:19.488Z,95348.34
2023-01-09T08:25:46.233Z,95345.13
2023-01-09T08:28:13.103Z,95351.88
2023-01-09T08:30:40.008Z,95365.53
2023-01-09T08:33:06.670Z,95368.25
2023-01-09T08:35:33.453Z,95377.13
2023-01-09T08:38:00.176Z,95372.81
2023-01-09T08:40:27.073Z,95391.00
2023-01-09T08:43:12.530Z,95398.44
2023-01-09T08:45:57.868Z,95396.50
2023-01-09T08:48:24.779Z,95401.41
2023-01-09T08:50:52.367Z,95391.09
2023-01-09T08:53:19.136Z,95394.19
2023-01-09T08:55:46.034Z,95402.16
2023-01-09T08:58:15.758Z,95404.50
2023-01-09T09:00:42.494Z,95414.56
2023-01-09T09:03:10.951Z,95412.88
2023-01-09T09:05:37.772Z,95421.97
2023-01-09T09:08:04.810Z,95404.22
2023-01-09T09:10:31.591Z,95424.47
2023-01-09T09:12:59.523Z,95426.09
2023-01-09T09:15:27.778Z,95424.44
2023-01-09T09:18:03.022Z,95450.38
2023-01-09T09:20:32.778Z,95449.28
2023-01-09T09:23:00.117Z,95459.16
2023-01-09T09:25:27.876Z,95462.66
2023-01-09T09:27:56.464Z,95457.03
2023-01-09T09:30:24.265Z,95460.44
2023-01-09T09:32:51.114Z,95447.22
2023-01-09T09:35:18.323Z,95474.97
2023-01-09T09:37:56.552Z,95499.94
2023-01-09T09:40:42.818Z,95510.25
2023-01-09T09:43:53.358Z,95504.00
2023-01-09T09:46:34.561Z,95504.00
2023-01-09T09:49:13.272Z,95513.59
2023-01-09T09:51:52.059Z,95518.16
2023-01-09T09:54:24.417Z,95539.28
2023-01-09T09:56:54.538Z,95560.06
2023-01-09T09:59:26.847Z,95549.13
2023-01-09T10:02:02.751Z,95548.16
2023-01-09T10:04:32.694Z,95556.53
2023-01-09T10:07:09.959Z,95568.28
2023-01-09T10:09:50.005Z,95598.03
2023-01-09T10:12:30.784Z,95600.72
2023-01-09T10:15:00.068Z,95590.41
2023-01-09T10:18:11.491Z,95621.59
2023-01-09T10:20:56.125Z,95613.75
2023-01-09T10:23:38.127Z,95584.00
2023-01-09T10:26:46.741Z,95581.41
2023-01-09T10:29:25.328Z,95623.28
2023-01-09T10:32:16.777Z,95623.25
2023-01-09T10:34:44.838Z,95615.47
2023-01-09T10:37:19.337Z,95631.91
2023-01-09T10:39:57.412Z,95616.69
2023-01-09T10:42:33.646Z,95625.09
2023-01-09T10:45:16.051Z,95636.22
2023-01-09T10:47:44.372Z,95625.72
2023-01-09T10:50:21.441Z,95623.06
2023-01-09T10:52:51.722Z,95611.97
2023-01-09T10:55:44.721Z,95616.94
2023-01-09T10:58:13.783Z,95625.25
2023-01-09T11:00:41.805Z,95644.28
2023-01-09T11:03:19.790Z,95647.31
2023-01-09T11:05:55.103Z,95667.34
2023-01-09T11:08:29.635Z,95686.53
2023-01-09T11:11:00.687Z,95684.06
2023-01-09T11:13:34.928Z,95673.91
2023-01-09T11:16:17.212Z,95666.13
2023-01-09T11:18:53.283Z,95661.38
2023-01-09T11:21:40.634Z,95671.59
2023-01-09T11:24:21.325Z,95711.25
2023-01-09T11:26:51.091Z,95702.19
2023-01-09T11:29:25.876Z,95715.03
2023-01-09T11:31:59.849Z,95745.13
2023-01-09T11:34:32.714Z,95744.03
2023-01-09T11:37:08.485Z,95730.75
2023-01-09T11:39:41.387Z,95741.00
2023-01-09T11:42:20.413Z,95774.13
2023-01-09T11:44:47.107Z,95754.16
2023-01-09T11:47:40.851Z,95742.13
2023-01-09T11:50:20.846Z,95705.81
2023-01-09T11:53:12.623Z,95734.34
2023-01-09T11:55:42.717Z,95724.00
2023-01-09T11:58:18.460Z,95707.19
2023-01-09T12:01:06.688Z,95701.91
2023-01-09T12:03:47.601Z,95666.72
2023-01-09T12:06:25.769Z,95636.22
2023-01-09T12:08:59.870Z,95623.25
2023-01-09T12:11:31.817Z,95602.84
2023-01-09T12:14:01.259Z,95623.53
2023-01-09T12:16:33.830Z,95637.31
2023-01-09T12:19:29.561Z,95634.63
2023-01-09T12:22:17.333Z,95629.38
2023-01-09T12:24:56.008Z,95628.72
2023-01-09T12:27:46.935Z,95622.88
2023-01-09T12:30:39.133Z,95619.41
2023-01-09T12:33:17.853Z,95618.50
2023-01-09T12:36:06.479Z,95610.22
2023-01-09T12:38:47.224Z,95596.94
2023-01-09T12:41:16.733Z,95602.91
2023-01-09T12:43:48.652Z,95583.50
2023-01-09T12:46:20.243Z,95566.59
2023-01-09T12:49:05.754Z,95566.44
2023-01-09T12:51:41.409Z,95608.53
2023-01-09T12:54:41.284Z,95615.94
2023-01-09T12:57:12.383Z,95598.28
2023-01-09T12:59:41.599Z,95606.94
2023-01-09T13:02:32.445Z,95601.00
2023-01-09T13:05:07.133Z,95609.81
2023-01-09T13:07:45.556Z,95607.03
2023-01-09T13:10:22.304Z,95608.19
2023-01-09T13:12:51.348Z,95610.38
2023-01-09T13:15:37.916Z,95584.34
2023-01-09T13:18:11.801Z,95587.25
2023-01-09T13:20:45.576Z,95575.53
2023-01-09T13:23:38.821Z,95554.41
2023-01-09T13:26:10.582Z,95544.72
2023-01-09T13:28:50.891Z,95535.59
2023-01-09T13:31:32.859Z,95522.16
2023-01-09T13:34:02.943Z,95508.91
2023-01-09T13:36:38.093Z,95488.94
2023-01-09T13:39:06.562Z,95494.91
2023-01-09T13:41:51.728Z,95478.00
2023-01-09T13:44:18.480Z,95478.91
2023-01-09T13:46:52.267Z,95482.22
2023-01-09T13:49:32.818Z,95479.66
2023-01-09T13:52:05.824Z,95480.66
2023-01-09T13:55:00.425Z,95488.06
2023-01-09T13:57:30.369Z,95501.97
2023-01-09T14:00:19.978Z,95516.38
2023-01-09T14:02:49.928Z,95532.47
2023-01-09T14:05:25.674Z,95537.25
2023-01-09T14:08:03.292Z,95547.84
2023-01-09T14:10:51.881Z,95559.16
2023-01-09T14:13:23.147Z,95559.59
2023-01-09T14:15:51.295Z,95548.72
2023-01-09T14:18:26.502Z,95561.28
2023-01-09T14:21:05.119Z,95562.03
2023-01-09T14:23:51.421Z,95555.38
2023-01-09T14:26:41.872Z,95570.06
2023-01-09T14:29:36.594Z,95550.31
2023-01-09T14:32:21.296Z,95542.47
2023-01-09T14:34:54.600Z,95539.25
2023-01-09T14:37:21.561Z,95539.25
2023-01-09T14:39:50.618Z,95523.91
2023-01-09T14:42:24.291Z,95521.97
2023-01-09T14:45:00.932Z,95508.31
2023-01-09T14:47:36.741Z,95506.13
2023-01-09T14:50:32.191Z,95496.34
2023-01-09T14:53:11.224Z,95479.56
2023-01-09T14:55:51.540Z,95480.81
2023-01-09T14:58:29.716Z,95482.38
2023-01-09T15:01:01.804Z,95468.13
2023-01-09T15:03:36.720Z,95495.97
2023-01-09T15:06:04.469Z,95497.91
2023-01-09T15:08:32.544Z,95505.84
2023-01-09T15:10:59.997Z,95501.63
2023-01-09T15:13:34.978Z,95509.09
2023-01-09T15:16:05.422Z,95513.09
2023-01-09T15:18:40.729Z,95512.06
2023-01-09T15:21:07.550Z,95513.88
2023-01-09T15:23:34.217Z,95515.13
2023-01-09T15:26:13.427Z,95517.84
2023-01-09T15:28:43.764Z,95523.13
2023-01-09T15:31:16.500Z,95527.44
2023-01-09T15:33:45.923Z,95523.78
2023-01-09T15:36:22.512Z,95522.78
2023-01-09T15:38:51.058Z,95512.81
2023-01-09T15:41:42.705Z,95506.28
2023-01-09T15:44:16.401Z,95507.22
2023-01-09T15:46:46.486Z,95504.00
2023-01-09T15:49:14.117Z,95504.31
2023-01-09T15:51:44.334Z,95503.06
2023-01-09T15:54:16.245Z,95512.25
2023-01-09T15:56:45.684Z,95521.53
2023-01-09T15:59:27.446Z,95527.03
2023-01-09T16:02:22.503Z,95534.00
2023-01-09T16:04:50.931Z,95553.44
2023-01-09T16:07:20.992Z,95577.47
2023-01-09T16:09:52.782Z,95561.88
2023-01-09T16:12:25.839Z,95567.25
2023-01-09T16:15:00.943Z,95570.16
2023-01-09T16:17:29.953Z,95585.75
2023-01-09T16:20:13.872Z,95596.47
2023-01-09T16:22:55.733Z,95605.78
2023-01-09T16:25:28.717Z,95611.56
2023-01-09T16:28:23.230Z,95627.91
2023-01-09T16:30:54.267Z,95640.19
2023-01-09T16:33:23.602Z,95639.44
2023-01-09T16:35:51.322Z,95649.63
2023-01-09T16:38:18.113Z,95651.00
2023-01-09T16:41:18.781Z,95656.91
2023-01-09T16:43:46.276Z,95661.94
2023-01-09T16:46:15.180Z,95673.00
2023-01-09T16:48:42.573Z,95687.25
2023-01-09T16:51:17.483Z,95685.88
2023-01-09T16:53:44.649Z,95686.41
2023-01-09T16:56:23.435Z,95691.09
2023-01-09T16:58:50.969Z,95684.75
2023-01-09T17:01:18.388Z,95698.38
2023-01-09T17:03:47.895Z,95714.91
2023-01-09T17:06:21.624Z,95706.13
2023-01-09T17:08:48.240Z,95712.19
2023-01-09T17:11:21.013Z,95720.25
2023-01-09T17:13:48.402Z,95725.25
2023-01-09T17:16:17.054Z,95727.72
2023-01-09T17:18:44.227Z,95729.19
2023-01-09T17:21:22.837Z,95744.25
2023-01-09T17:24:09.545Z,95746.41
2023-01-09T17:26:56.640Z,95744.59
2023-01-09T17:29:23.625Z,95749.31
2023-01-09T17:31:50.405Z,95751.44
2023-01-09T17:34:17.355Z,95746.41
2023-01-09T17:36:46.589Z,95745.53
2023-01-09T17:39:14.992Z,95747.66
2023-01-09T17:41:41.982Z,95754.63
2023-01-09T17:44:11.418Z,95757.63
2023-01-09T17:46:41.398Z,95759.59
2023-01-09T17:49:18.511Z,95764.16
2023-01-09T17:51:45.470Z,95762.06
2023-01-09T17:54:12.630Z,95758.88
2023-01-09T17:56:43.355Z,95762.97
2023-01-09T17:59:15.381Z,95766.16
2023-01-09T18:01:43.563Z,95769.19
2023-01-09T18:04:11.240Z,95779.25
2023-01-09T18:06:37.979Z,95773.03
2023-01-09T18:09:06.296Z,95785.91
2023-01-09T18:11:33.331Z,95778.47
2023-01-09T18:14:00.136Z,95768.44
2023-01-09T18:16:28.582Z,95771.91
2023-01-09T18:18:57.926Z,95785.25
2023-01-09T18:21:26.321Z,95788.59
2023-01-09T18:23:53.309Z,95781.66
2023-01-09T18:26:21.072Z,95787.41
2023-01-09T18:28:55.046Z,95807.22
2023-01-09T18:31:24.440Z,95821.31
2023-01-09T18:33:52.616Z,95831.00
2023-01-09T18:36:22.358Z,95842.69
2023-01-09T18:38:53.622Z,95846.75
2023-01-09T18:41:21.698Z,95865.84
2023-01-09T18:43:49.974Z,95867.53
2023-01-09T18:46:20.723Z,95870.41
2023-01-09T18:48:52.346Z,95884.81
2023-01-09T18:51:19.440Z,95892.09
2023-01-09T18:53:46.052Z,95892.69
2023-01-09T18:56:12.926Z,95896.47
2023-01-09T18:58:39.662Z,95905.44
2023-01-09T19:01:06.614Z,95910.25
2023-01-09T19:03:33.442Z,95916.00
2023-01-09T19:06:01.188Z,95924.00
2023-01-09T19:08:32.961Z,95929.38
2023-01-09T19:10:59.941Z,95929.19
2023-01-09T19:13:32.057Z,95932.22
2023-01-09T19:15:59.361Z,95946.91
2023-01-09T19:18:27.043Z,95950.72
2023-01-09T19:20:55.193Z,95948.63
2023-01-09T19:23:24.823Z,95959.34
2023-01-09T19:25:52.462Z,95965.72
2023-01-09T19:28:20.418Z,95976.00
2023-01-09T19:30:47.239Z,95977.56
2023-01-09T19:33:14.120Z,95981.13
2023-01-09T19:35:40.811Z,95982.50
2023-01-09T19:38:07.516Z,95988.72
2023-01-09T19:40:36.335Z,95983.84
2023-01-09T19:43:03.103Z,95981.91
2023-01-09T19:45:29.709Z,95990.69
2023-01-09T19:47:56.547Z,95996.59
2023-01-09T19:50:23.393Z,96006.13
2023-01-09T19:52:51.032Z,96017.50
2023-01-09T19:55:17.697Z,96020.53
2023-01-09T19:57:45.280Z,96017.03
2023-01-09T20:00:13.210Z,96018.84
2023-01-09T20:02:40.736Z,96023.25
2023-01-09T20:05:08.441Z,96023.56
2023-01-09T20:07:35.195Z,96028.41
2023-01-09T20:10:01.914Z,96034.75
2023-01-09T20:12:28.612Z,96039.78
2023-01-09T20:14:55.321Z,96045.34
2023-01-09T20:17:22.162Z,96042.81
2023-01-09T20:19:48.808Z,96047.22
2023-01-09T20:22:15.410Z,96052.53
2023-01-09T20:24:42.090Z,96053.00
2023-01-09T20:27:08.760Z,96057.69
2023-01-09T20:29:35.521Z,96053.00
2023-01-09T20:32:05.565Z,96064.19
2023-01-09T20:34:32.694Z,96066.28
2023-01-09T20:36:59.386Z,96062.97
2023-01-09T20:39:26.054Z,96076.31
2023-01-09T20:41:52.850Z,96080.25
2023-01-09T20:44:19.599Z,96083.28
2023-01-09T20:46:49.563Z,96077.81
2023-01-09T20:49:18.495Z,96077.41
2023-01-09T20:51:50.463Z,96095.84
2023-01-09T20:54:18.707Z,96086.75
2023-01-09T20:56:45.415Z,96087.06
2023-01-09T20:59:14.561Z,96096.78
2023-01-09T21:01:41.551Z,96092.97
2023-01-09T21:04:09.005Z,96092.66
2023-01-09T21:06:36.285Z,96109.06
2023-01-09T21:09:03.850Z,96116.16
2023-01-09T21:11:30.705Z,96116.75
2023-01-09T21:13:57.570Z,96114.81
2023-01-09T21:16:25.095Z,96117.19
2023-01-09T21:18:53.581Z,96111.28
2023-01-09T21:21:23.139Z,96111.59
2023-01-09T21:23:52.731Z,96105.81
2023-01-09T21:26:22.627Z,96114.47
2023-01-09T21:28:50.805Z,96119.91
2023-01-09T21:31:20.784Z,96126.09
2023-01-09T21:33:48.024Z,96143.69
2023-01-09T21:36:15.401Z,96142.44
2023-01-09T21:38:42.123Z,96149.56
2023-01-09T21:41:27.668Z,96152.44
2023-01-09T21:44:13.142Z,96148.25
2023-01-09T21:46:52.004Z,96157.06
2023-01-09T21:49:23.286Z,96158.13
2023-01-09T21:51:49.938Z,96159.78
2023-01-09T21:54:16.729Z,96151.00
2023-01-09T21:56:43.537Z,96161.00
2023-01-09T21:59:10.369Z,96154.81
2023-01-09T22:01:37.117Z,96166.34
2023-01-09T22:04:04.435Z,96169.50
2023-01-09T22:06:31.564Z,96178.19
2023-01-09T22:08:58.341Z,96179.53
2023-01-09T22:11:24.988Z,96195.00
2023-01-09T22:13:52.256Z,96190.56
2023-01-09T22:16:19.386Z,96206.78
2023-01-09T22:18:46.218Z,96211.94
2023-01-09T22:21:13.165Z,96219.06
2023-01-09T22:23:39.805Z,96216.63
2023-01-09T22:26:10.981Z,96229.38
2023-01-09T22:28:37.648Z,96233.56
2023-01-09T22:31:09.676Z,96243.88
2023-01-09T22:33:37.264Z,96245.56
2023-01-09T22:36:08.243Z,96256.78
2023-01-09T22:38:35.035Z,96255.13
2023-01-09T22:41:01.856Z,96265.84
2023-01-09T22:43:29.365Z,96267.25
2023-01-09T22:46:04.084Z,96264.22
2023-01-09T22:48:31.941Z,96268.28
2023-01-09T22:51:03.418Z,96282.22
2023-01-09T22:53:30.747Z,96274.81
2023-01-09T22:55:58.925Z,96294.03
2023-01-09T22:58:28.013Z,96288.81
2023-01-09T23:00:54.849Z,96283.09
2023-01-09T23:03:22.023Z,96283.69
2023-01-09T23:05:48.987Z,96295.78
2023-01-09T23:08:15.810Z,96292.47
2023-01-09T23:10:42.877Z,96290.63
2023-01-09T23:13:09.512Z,96287.00
2023-01-09T23:15:36.197Z,96292.25
2023-01-09T23:18:02.992Z,96306.69
2023-01-09T23:20:29.633Z,96300.53
2023-01-09T23:22:58.881Z,96315.16
2023-01-09T23:25:25.808Z,96311.47
2023-01-09T23:27:52.504Z,96320.25
2023-01-09T23:30:19.170Z,96326.16
2023-01-09T23:32:45.969Z,96339.34
2023-01-09T23:35:12.693Z,96339.53
2023-01-09T23:37:42.452Z,96341.78
2023-01-09T23:40:10.618Z,96354.28
2023-01-09T23:42:56.029Z,96354.56
2023-01-09T23:45:23.017Z,96368.91
2023-01-09T23:47:49.609Z,96364.22
2023-01-09T23:50:16.480Z,96363.09
2023-01-09T23:52:43.072Z,96363.38
2023-01-09T23:55:11.115Z,96364.53
2023-01-09T23:57:37.753Z,96362.22
